Time;durP1;ratioP1;P1;durP2;ratioP2;P2;SDS_P1;SDS_P2;PMS_P1;PMS_P2;Temp;Humidity;BMP_temperature;BMP_pressure;BME280_temperature;BME280_humidity;BME280_pressure;Samples;Min_cycle;Max_cycle;Signal;HPM_P1;HPM_P2
2022/04/24 04:01:26;;;;;;;17.80;14.17;;;11.50;99.90;;;;;;5523488;23;20881;-73
2022/04/24 04:03:53;;;;;;;18.70;15.00;;;11.50;99.90;;;;;;4987561;28;20478;-73
2022/04/24 04:06:21;;;;;;;19.43;14.53;;;11.50;99.90;;;;;;4987159;28;20483;-73
2022/04/24 04:08:47;;;;;;;20.20;15.00;;;11.50;99.90;;;;;;4987382;28;20998;-73
2022/04/24 04:11:14;;;;;;;19.00;14.93;;;11.50;99.90;;;;;;4978548;28;20488;-73
2022/04/24 04:13:41;;;;;;;21.07;15.00;;;11.50;99.90;;;;;;4967859;28;20456;-73
2022/04/24 04:16:08;;;;;;;18.87;15.10;;;11.50;99.90;;;;;;4967561;28;20995;-73
2022/04/24 04:18:37;;;;;;;19.13;15.20;;;11.60;99.90;;;;;;4966781;28;20951;-73
2022/04/24 04:21:03;;;;;;;19.50;14.30;;;11.60;99.90;;;;;;4967084;28;20993;-73
2022/04/24 04:23:30;;;;;;;17.97;15.40;;;11.60;99.90;;;;;;4967600;28;20460;-73
2022/04/24 04:25:58;;;;;;;18.33;14.70;;;11.60;99.90;;;;;;4967886;28;20502;-73
2022/04/24 04:28:25;;;;;;;18.40;14.40;;;11.60;99.90;;;;;;4966936;28;20465;-73
2022/04/24 04:30:52;;;;;;;18.30;15.50;;;11.60;99.90;;;;;;4966939;28;20480;-73
2022/04/24 04:33:19;;;;;;;17.53;13.90;;;11.60;99.90;;;;;;4967372;28;20487;-73
2022/04/24 04:35:47;;;;;;;18.60;15.07;;;11.60;99.90;;;;;;4967430;28;20452;-73
2022/04/24 04:38:14;;;;;;;22.13;15.43;;;11.60;99.90;;;;;;4966555;28;20463;-73
2022/04/24 04:40:41;;;;;;;17.20;14.03;;;11.60;99.90;;;;;;4967215;28;20488;-73
2022/04/24 04:43:08;;;;;;;19.03;15.03;;;11.60;99.90;;;;;;4967135;28;20890;-73
2022/04/24 04:45:35;;;;;;;20.80;17.10;;;11.60;99.90;;;;;;4967286;28;20472;-73
2022/04/24 04:48:02;;;;;;;20.73;15.80;;;11.60;99.90;;;;;;4966459;28;20452;-73
2022/04/24 04:50:29;;;;;;;24.00;16.87;;;11.60;99.90;;;;;;4966897;28;20885;-73
2022/04/24 04:52:57;;;;;;;21.80;16.50;;;11.60;99.90;;;;;;4967270;28;20456;-73
2022/04/24 04:55:24;;;;;;;20.33;15.63;;;11.60;99.90;;;;;;4967055;28;20959;-73
2022/04/24 04:57:51;;;;;;;24.00;15.50;;;11.60;99.90;;;;;;4966382;28;20456;-73
2022/04/24 05:00:19;;;;;;;23.90;16.40;;;11.60;99.90;;;;;;4966727;28;20946;-73
2022/04/24 05:02:46;;;;;;;19.37;15.50;;;11.70;99.90;;;;;;4966484;28;20470;-73
2022/04/24 05:05:13;;;;;;;21.97;17.30;;;11.70;99.90;;;;;;4966367;28;20832;-73
2022/04/24 05:07:40;;;;;;;23.77;16.87;;;11.70;99.90;;;;;;4966274;28;20502;-72
2022/04/24 05:10:09;;;;;;;24.80;16.90;;;11.70;99.90;;;;;;4966695;28;21037;-73
2022/04/24 05:12:36;;;;;;;28.60;18.93;;;11.80;99.90;;;;;;4966555;28;20486;-72
2022/04/24 05:15:05;;;;;;;37.43;17.20;;;11.70;99.90;;;;;;4966462;28;20937;-72
2022/04/24 05:17:34;;;;;;;22.53;14.60;;;11.60;99.90;;;;;;4965983;28;21024;-70
2022/04/24 05:20:01;;;;;;;16.60;9.83;;;11.20;99.90;;;;;;4966921;28;20486;-70
2022/04/24 05:22:28;;;;;;;9.93;6.47;;;10.90;99.90;;;;;;4966131;28;20483;-70
2022/04/24 05:24:55;;;;;;;13.43;6.67;;;10.50;99.90;;;;;;4966487;28;20467;-71
2022/04/24 05:27:23;;;;;;;10.33;5.93;;;10.30;99.90;;;;;;4966018;28;20492;-71
2022/04/24 05:29:50;;;;;;;7.93;6.00;;;10.10;99.90;;;;;;4965978;28;20472;-71
2022/04/24 05:32:17;;;;;;;6.30;4.63;;;10.00;99.90;;;;;;4966203;28;20571;-71
2022/04/24 05:34:44;;;;;;;7.13;4.53;;;9.80;99.90;;;;;;4966304;28;20469;-71
2022/04/24 05:37:11;;;;;;;4.90;3.27;;;9.80;99.90;;;;;;4965704;28;20837;-71
2022/04/24 05:39:38;;;;;;;6.67;3.83;;;9.60;99.90;;;;;;4966449;28;20546;-71
2022/04/24 05:42:06;;;;;;;11.20;3.10;;;9.50;99.90;;;;;;4965870;28;20764;-71
2022/04/24 05:44:34;;;;;;;7.97;2.90;;;9.40;99.90;;;;;;4965978;28;20829;-71
2022/04/24 05:47:01;;;;;;;2.90;2.27;;;9.40;99.90;;;;;;4965647;28;21050;-71
2022/04/24 05:49:28;;;;;;;6.10;2.70;;;9.40;99.90;;;;;;4966376;28;20463;-71
2022/04/24 05:51:55;;;;;;;6.10;2.97;;;9.30;99.90;;;;;;4965830;28;20869;-71
2022/04/24 05:54:21;;;;;;;3.20;1.70;;;9.30;99.90;;;;;;4966395;28;20748;-71
2022/04/24 05:56:48;;;;;;;2.97;1.70;;;9.20;99.90;;;;;;4965451;28;20552;-71
2022/04/24 05:59:15;;;;;;;3.10;1.70;;;9.10;99.90;;;;;;4966056;28;20448;-71
2022/04/24 06:01:43;;;;;;;5.43;1.60;;;9.20;99.90;;;;;;4965959;28;20510;-71
2022/04/24 06:04:10;;;;;;;1.43;1.40;;;9.20;99.90;;;;;;4966201;28;20457;-71
2022/04/24 06:06:37;;;;;;;1.40;1.10;;;9.10;99.90;;;;;;4965503;28;20501;-71
2022/04/24 06:09:06;;;;;;;2.03;1.20;;;9.10;99.90;;;;;;4965802;28;20470;-71
2022/04/24 06:11:33;;;;;;;2.67;1.27;;;9.00;99.90;;;;;;4965532;28;20927;-71
2022/04/24 06:14:00;;;;;;;2.40;1.43;;;9.00;99.90;;;;;;4966229;28;20452;-71
2022/04/24 06:16:26;;;;;;;3.00;1.40;;;9.00;99.90;;;;;;4965693;28;20445;-74
2022/04/24 06:18:55;;;;;;;0.90;0.90;;;8.90;99.90;;;;;;4969394;28;20462;-71
2022/04/24 06:21:21;;;;;;;1.00;0.90;;;8.90;99.90;;;;;;4969625;28;20767;-71
2022/04/24 06:23:48;;;;;;;0.83;0.83;;;8.90;99.90;;;;;;4969515;28;20459;-72
2022/04/24 06:26:15;;;;;;;1.00;1.00;;;8.90;99.90;;;;;;4969107;28;20871;-71
2022/04/24 06:28:42;;;;;;;0.70;0.70;;;8.90;99.90;;;;;;4969073;28;20948;-71
2022/04/24 06:31:09;;;;;;;0.80;0.80;;;8.90;99.90;;;;;;4969716;28;20800;-72
2022/04/24 06:33:36;;;;;;;1.53;0.90;;;8.80;99.90;;;;;;4969988;28;20459;-71
2022/04/24 06:36:04;;;;;;;0.90;0.90;;;8.80;99.90;;;;;;4969531;28;20456;-71
2022/04/24 06:38:31;;;;;;;0.93;0.93;;;8.90;99.90;;;;;;4968271;28;20831;-71
2022/04/24 06:40:58;;;;;;;1.67;1.00;;;8.80;99.90;;;;;;4969870;28;20476;-72
2022/04/24 06:43:25;;;;;;;3.40;1.00;;;8.80;99.90;;;;;;4969771;28;20466;-72
2022/04/24 06:45:52;;;;;;;1.23;1.07;;;8.80;99.90;;;;;;4969413;28;20831;-71
2022/04/24 06:48:19;;;;;;;3.50;1.10;;;8.80;99.90;;;;;;4968715;28;20491;-71
2022/04/24 06:50:47;;;;;;;0.80;0.80;;;8.80;99.90;;;;;;4969557;28;20476;-70
2022/04/24 06:53:18;;;;;;;0.80;0.80;;;8.90;99.90;;;;;;4969131;28;20466;-71
2022/04/24 06:55:45;;;;;;;1.30;1.20;;;8.80;99.90;;;;;;4969591;28;20448;-71
2022/04/24 06:58:15;;;;;;;1.03;0.87;;;8.70;99.90;;;;;;4968543;28;20455;-72
2022/04/24 07:00:43;;;;;;;1.67;0.80;;;8.70;99.90;;;;;;4969006;28;20491;-71
2022/04/24 07:03:11;;;;;;;1.00;0.97;;;8.60;99.90;;;;;;4969120;28;20460;-71
2022/04/24 07:05:38;;;;;;;0.80;0.80;;;8.60;99.90;;;;;;4968864;28;21148;-71
2022/04/24 07:08:05;;;;;;;2.60;1.00;;;8.60;99.90;;;;;;4968558;28;20862;-71
2022/04/24 07:10:34;;;;;;;1.40;1.30;;;8.60;99.90;;;;;;4967018;28;21051;-72
2022/04/24 07:13:01;;;;;;;1.00;1.00;;;8.60;99.90;;;;;;4968484;28;20457;-72
2022/04/24 07:15:31;;;;;;;1.13;1.07;;;8.60;99.90;;;;;;4968969;28;20535;-72
2022/04/24 07:17:59;;;;;;;1.30;1.20;;;8.50;99.90;;;;;;4968220;28;20479;-72
2022/04/24 07:20:27;;;;;;;2.17;1.40;;;8.60;99.90;;;;;;4968955;28;20467;-72
2022/04/24 07:22:57;;;;;;;1.20;1.17;;;8.60;99.90;;;;;;4968928;28;20464;-72
2022/04/24 07:25:26;;;;;;;1.17;1.10;;;8.50;99.90;;;;;;4969190;28;20488;-72
2022/04/24 07:27:55;;;;;;;1.30;1.20;;;8.50;99.90;;;;;;4968225;28;21345;-72
2022/04/24 07:30:22;;;;;;;1.40;1.30;;;8.60;99.90;;;;;;4968902;28;20463;-72
2022/04/24 07:32:51;;;;;;;1.30;1.20;;;8.60;99.90;;;;;;4968515;28;20565;-72
2022/04/24 07:35:20;;;;;;;1.53;1.43;;;8.50;99.90;;;;;;4968853;28;20495;-72
2022/04/24 07:37:48;;;;;;;1.27;1.17;;;8.50;99.90;;;;;;4967985;28;20892;-72
2022/04/24 07:40:17;;;;;;;1.20;1.10;;;8.60;99.90;;;;;;4968372;28;20547;-73
2022/04/24 07:42:48;;;;;;;0.80;0.80;;;8.60;99.90;;;;;;4968620;28;20484;-72
2022/04/24 07:45:23;;;;;;;2.40;1.20;;;8.50;99.90;;;;;;4968393;28;20461;-73
2022/04/24 07:47:51;;;;;;;1.10;1.00;;;8.60;99.90;;;;;;4968103;28;20484;-73
2022/04/24 07:50:20;;;;;;;1.30;1.20;;;8.60;99.90;;;;;;4968524;28;20467;-72
2022/04/24 07:52:48;;;;;;;0.87;0.87;;;8.60;99.90;;;;;;4968385;28;20961;-73
2022/04/24 07:55:17;;;;;;;1.10;1.10;;;8.60;99.90;;;;;;4968572;28;21089;-73
2022/04/24 07:57:44;;;;;;;2.33;0.90;;;8.60;99.90;;;;;;4967551;28;21007;-72
2022/04/24 08:00:12;;;;;;;1.07;1.00;;;8.60;99.90;;;;;;4968001;28;20548;-72
2022/04/24 08:02:48;;;;;;;0.97;0.90;;;8.60;99.90;;;;;;4967819;28;20544;-72
2022/04/24 08:05:20;;;;;;;0.80;0.80;;;8.70;99.90;;;;;;4968137;28;20817;-72
2022/04/24 08:07:47;;;;;;;1.00;1.00;;;8.70;99.90;;;;;;4967314;28;20499;-72
2022/04/24 08:10:14;;;;;;;1.70;0.90;;;8.70;99.90;;;;;;4967921;28;20484;-73
2022/04/24 08:12:41;;;;;;;1.93;1.20;;;8.70;99.90;;;;;;4967800;28;20544;-73
2022/04/24 08:15:09;;;;;;;1.50;1.40;;;8.70;99.90;;;;;;4967978;28;20456;-74
2022/04/24 08:17:36;;;;;;;1.43;1.33;;;8.70;99.90;;;;;;4967057;28;20560;-73
2022/04/24 08:20:05;;;;;;;1.50;1.40;;;8.70;99.90;;;;;;4967945;28;20542;-73
2022/04/24 08:22:38;;;;;;;1.30;1.20;;;8.60;99.90;;;;;;4967864;28;20478;-74
2022/04/24 08:25:06;;;;;;;1.03;1.03;;;8.60;99.90;;;;;;4967420;28;20953;-73
2022/04/24 08:27:33;;;;;;;1.30;1.20;;;8.60;99.90;;;;;;4967051;28;20499;-73
2022/04/24 08:30:00;;;;;;;1.60;1.50;;;8.70;99.90;;;;;;4962857;28;20452;-73
2022/04/24 08:32:27;;;;;;;1.63;1.53;;;8.70;99.90;;;;;;4948370;28;20559;-73
2022/04/24 08:34:56;;;;;;;4.47;1.57;;;8.70;99.90;;;;;;4955195;28;20564;-73
2022/04/24 08:37:24;;;;;;;1.17;1.07;;;8.70;99.90;;;;;;4965931;28;20453;-73
2022/04/24 08:39:51;;;;;;;1.43;1.10;;;8.70;99.90;;;;;;4966919;28;20471;-73
2022/04/24 08:42:21;;;;;;;2.50;1.60;;;8.60;99.90;;;;;;4967538;28;20481;-73
2022/04/24 08:44:48;;;;;;;2.80;1.10;;;8.70;99.90;;;;;;4965787;28;20560;-74
2022/04/24 08:47:16;;;;;;;0.90;0.83;;;8.70;99.90;;;;;;4966047;28;20863;-73
2022/04/24 08:49:43;;;;;;;1.30;1.20;;;8.70;99.90;;;;;;4965543;28;20457;-74
2022/04/24 08:52:11;;;;;;;3.57;1.23;;;8.70;99.90;;;;;;4967028;28;21105;-74
2022/04/24 08:54:41;;;;;;;1.20;1.20;;;8.60;99.90;;;;;;4967518;28;20464;-74
2022/04/24 08:57:08;;;;;;;1.53;1.10;;;8.60;99.90;;;;;;4966783;28;20437;-74
2022/04/24 08:59:36;;;;;;;1.70;1.20;;;8.60;99.90;;;;;;4969256;28;20465;-73
2022/04/24 09:02:04;;;;;;;1.40;1.30;;;8.60;99.90;;;;;;4967348;28;20492;-74
2022/04/24 09:04:33;;;;;;;1.63;1.20;;;8.60;99.90;;;;;;4978484;28;20510;-74
2022/04/24 09:07:01;;;;;;;1.20;1.10;;;8.60;99.90;;;;;;4985603;28;20459;-74
2022/04/24 09:09:29;;;;;;;1.23;1.13;;;8.60;99.90;;;;;;4985232;28;20940;-74
2022/04/24 09:12:08;;;;;;;1.47;1.30;;;8.70;99.90;;;;;;4985457;28;20484;-75
2022/04/24 09:14:36;;;;;;;1.40;1.30;;;8.70;99.90;;;;;;4983732;28;20940;-73
2022/04/24 09:17:06;;;;;;;2.07;1.87;;;8.70;99.90;;;;;;4984600;28;20464;-73
2022/04/24 09:19:35;;;;;;;1.40;1.30;;;8.80;99.90;;;;;;4985037;28;20516;-73
2022/04/24 09:22:05;;;;;;;1.50;1.40;;;8.80;99.90;;;;;;4985691;28;20566;-73
2022/04/24 09:24:41;;;;;;;1.53;1.43;;;8.70;99.90;;;;;;4985231;28;20451;-73
2022/04/24 09:27:10;;;;;;;3.03;1.40;;;8.80;99.90;;;;;;4984362;28;20490;-73
2022/04/24 09:29:39;;;;;;;1.63;1.53;;;8.80;99.90;;;;;;4985305;28;20550;-74
2022/04/24 09:32:11;;;;;;;1.30;1.20;;;8.90;99.90;;;;;;4984964;28;20907;-74
2022/04/24 09:34:39;;;;;;;1.20;1.20;;;8.90;99.90;;;;;;4988434;28;20507;-73
2022/04/24 09:37:08;;;;;;;1.17;1.17;;;8.90;99.90;;;;;;4984569;28;20458;-73
2022/04/24 09:39:36;;;;;;;1.87;1.77;;;8.80;99.90;;;;;;4985234;28;20543;-73
2022/04/24 09:42:05;;;;;;;1.77;1.67;;;8.80;99.90;;;;;;4985157;28;20480;-73
2022/04/24 09:44:41;;;;;;;1.40;1.30;;;8.80;99.90;;;;;;4984553;28;20456;-73
2022/04/24 09:47:09;;;;;;;1.33;1.23;;;8.80;99.90;;;;;;4985243;28;20459;-73
2022/04/24 09:49:38;;;;;;;2.77;1.70;;;8.80;99.90;;;;;;4985737;28;20456;-73
2022/04/24 09:52:11;;;;;;;3.17;1.90;;;8.80;99.90;;;;;;4986711;28;20455;-74
2022/04/24 09:54:40;;;;;;;3.50;1.80;;;8.80;99.90;;;;;;4990051;28;20455;-73
2022/04/24 09:57:09;;;;;;;4.70;2.90;;;8.80;99.90;;;;;;4989573;28;20506;-73
2022/04/24 09:59:37;;;;;;;2.63;2.43;;;8.80;99.90;;;;;;4990795;28;20828;-73
2022/04/24 10:02:07;;;;;;;2.77;2.57;;;8.90;99.90;;;;;;4990010;28;20494;-73
2022/04/24 10:04:36;;;;;;;2.40;2.17;;;9.00;99.90;;;;;;4990070;28;20479;-73
2022/04/24 10:07:06;;;;;;;2.00;1.90;;;9.00;99.90;;;;;;4988423;28;20463;-73
2022/04/24 10:09:35;;;;;;;2.60;2.40;;;9.00;99.90;;;;;;4989532;28;20455;-73
2022/04/24 10:12:07;;;;;;;3.10;2.40;;;9.00;99.90;;;;;;4989601;28;20478;-73
2022/04/24 10:14:38;;;;;;;2.43;2.23;;;9.00;99.90;;;;;;4989560;28;20492;-73
2022/04/24 10:17:36;;;;;;;2.57;2.20;;;9.00;99.90;;;;;;4988704;28;20474;-73
2022/04/24 10:20:19;;;;;;;2.67;2.47;;;9.00;99.90;;;;;;4983192;28;20498;-73
2022/04/24 10:22:49;;;;;;;2.33;1.90;;;9.10;99.90;;;;;;4989459;28;21458;-73
2022/04/24 10:25:17;;;;;;;2.07;1.93;;;9.10;99.90;;;;;;4989255;28;20539;-73
2022/04/24 10:27:45;;;;;;;5.80;2.30;;;9.10;99.90;;;;;;4988323;28;20496;-73
2022/04/24 10:30:19;;;;;;;3.60;2.30;;;9.10;99.90;;;;;;4989447;28;20455;-73
2022/04/24 10:32:48;;;;;;;5.10;2.20;;;9.10;99.90;;;;;;4989131;28;20558;-73
2022/04/24 10:35:18;;;;;;;1.63;1.53;;;9.10;99.90;;;;;;4988808;28;20459;-74
2022/04/24 10:37:47;;;;;;;2.00;1.80;;;9.20;99.90;;;;;;4988138;28;20506;-73
2022/04/24 10:40:15;;;;;;;4.00;1.70;;;9.20;99.90;;;;;;4988870;28;20455;-73
2022/04/24 10:42:43;;;;;;;2.83;2.43;;;9.10;99.90;;;;;;4988958;28;20475;-73
2022/04/24 10:45:14;;;;;;;1.83;1.73;;;9.10;99.90;;;;;;4988821;28;20467;-73
2022/04/24 10:47:58;;;;;;;3.23;1.77;;;9.10;99.90;;;;;;4987934;28;20475;-73
2022/04/24 10:50:25;;;;;;;2.03;1.80;;;9.10;99.90;;;;;;4988648;28;20459;-73
2022/04/24 10:52:53;;;;;;;2.00;1.80;;;9.20;99.90;;;;;;4988717;28;20459;-74
2022/04/24 10:55:25;;;;;;;2.43;2.17;;;9.20;99.90;;;;;;4988806;28;20459;-73
2022/04/24 10:57:57;;;;;;;2.80;2.23;;;9.30;99.90;;;;;;4987861;28;20451;-74
2022/04/24 11:00:32;;;;;;;2.17;1.97;;;9.30;99.90;;;;;;4988227;28;20443;-73
2022/04/24 11:03:09;;;;;;;2.67;2.47;;;9.40;99.90;;;;;;4987865;28;20970;-73
2022/04/24 11:05:41;;;;;;;4.07;2.53;;;9.40;99.90;;;;;;4988784;28;20479;-73
2022/04/24 11:08:10;;;;;;;2.80;2.60;;;9.40;99.90;;;;;;4987881;28;20503;-73
2022/04/24 11:10:42;;;;;;;2.30;2.10;;;9.50;99.90;;;;;;4988827;28;20483;-74
2022/04/24 11:13:12;;;;;;;2.10;1.90;;;9.50;99.90;;;;;;4988389;28;20467;-74
2022/04/24 11:15:45;;;;;;;2.17;1.97;;;9.50;99.90;;;;;;4987697;28;20464;-74
2022/04/24 11:18:21;;;;;;;4.13;2.33;;;9.50;99.90;;;;;;4987834;28;20459;-74
2022/04/24 11:20:56;;;;;;;2.80;2.33;;;9.60;99.90;;;;;;4987967;28;20976;-74
2022/04/24 11:23:26;;;;;;;3.63;2.33;;;9.60;99.90;;;;;;4979887;28;20460;-75
2022/04/24 11:25:54;;;;;;;7.00;2.93;;;9.60;99.90;;;;;;4968829;28;20544;-75
2022/04/24 11:28:21;;;;;;;2.80;2.23;;;9.70;99.90;;;;;;4968285;28;20500;-75
2022/04/24 11:30:48;;;;;;;5.43;2.40;;;9.70;99.90;;;;;;4968493;28;20535;-74
2022/04/24 11:33:15;;;;;;;2.40;2.03;;;9.70;99.90;;;;;;4968823;28;20507;-74
2022/04/24 11:35:44;;;;;;;2.40;2.20;;;9.70;99.90;;;;;;4968425;28;21153;-74
2022/04/24 11:38:13;;;;;;;3.70;1.90;;;9.70;99.90;;;;;;4967952;28;20452;-74
2022/04/24 11:40:49;;;;;;;3.43;2.13;;;9.70;99.90;;;;;;4968327;28;20472;-74
2022/04/24 11:43:16;;;;;;;2.40;2.20;;;9.70;99.90;;;;;;4970137;28;20857;-75
2022/04/24 11:51:20;;;;;;;3.40;2.10;;;9.80;99.90;;;;;;4974455;28;20464;-74
2022/04/24 11:53:48;;;;;;;3.17;2.73;;;9.80;99.90;;;;;;4974638;28;20941;-75
2022/04/24 11:56:16;;;;;;;2.43;2.23;;;9.80;99.90;;;;;;4974044;28;20452;-74
2022/04/24 11:58:44;;;;;;;2.50;2.10;;;9.90;99.90;;;;;;4974338;28;20559;-74
2022/04/24 12:01:13;;;;;;;2.67;2.43;;;9.90;99.90;;;;;;4974224;28;20483;-75
2022/04/24 12:03:43;;;;;;;2.13;1.90;;;10.00;99.90;;;;;;4974216;28;20890;-74
2022/04/24 12:06:11;;;;;;;2.67;1.60;;;9.90;99.90;;;;;;4974522;28;20475;-74
2022/04/24 12:08:44;;;;;;;1.90;1.80;;;10.00;99.90;;;;;;4974056;28;20493;-75
2022/04/24 12:11:12;;;;;;;2.63;1.90;;;10.00;99.90;;;;;;4974220;28;20548;-74
2022/04/24 12:13:39;;;;;;;1.43;1.33;;;10.00;99.90;;;;;;4974184;28;20857;-74
2022/04/24 12:16:06;;;;;;;1.27;1.17;;;10.10;99.90;;;;;;4972982;28;20824;-74
2022/04/24 12:18:32;;;;;;;1.43;1.33;;;10.10;99.90;;;;;;4973625;28;20497;-74
2022/04/24 12:20:59;;;;;;;1.20;1.10;;;10.10;99.90;;;;;;4974105;28;20477;-75
2022/04/24 12:23:31;;;;;;;1.67;1.50;;;10.10;99.90;;;;;;4974128;28;21019;-74
2022/04/24 12:26:02;;;;;;;1.27;1.17;;;10.10;99.90;;;;;;4974095;28;20532;-74
2022/04/24 12:28:35;;;;;;;1.70;1.43;;;10.10;99.90;;;;;;4973013;28;20496;-74
2022/04/24 12:31:03;;;;;;;2.17;1.40;;;10.10;99.90;;;;;;4974079;28;20472;-74
2022/04/24 12:33:31;;;;;;;1.43;1.30;;;10.20;99.90;;;;;;4986646;28;20521;-74
2022/04/24 12:36:08;;;;;;;1.83;1.57;;;10.00;99.90;;;;;;4993010;28;20460;-74
2022/04/24 12:38:35;;;;;;;7.03;2.63;;;10.00;99.90;;;;;;4992821;28;20486;-75
2022/04/24 12:41:08;;;;;;;10.97;7.37;;;10.00;99.90;;;;;;4992890;28;20530;-75
2022/04/24 12:43:35;;;;;;;2.63;2.43;;;10.00;99.90;;;;;;4993377;28;20542;-74
2022/04/24 12:46:02;;;;;;;2.53;2.33;;;10.00;99.90;;;;;;4993213;28;20452;-74
2022/04/24 12:48:30;;;;;;;3.30;3.00;;;10.00;99.90;;;;;;4978716;28;20511;-74
2022/04/24 12:50:57;;;;;;;2.97;2.77;;;10.00;99.90;;;;;;4973846;28;20840;-74
2022/04/24 12:53:24;;;;;;;1.93;1.80;;;10.00;99.90;;;;;;4987565;28;20902;-75
2022/04/24 12:55:51;;;;;;;2.53;2.30;;;10.00;99.90;;;;;;4993032;28;20444;-75
2022/04/24 12:58:20;;;;;;;2.57;2.23;;;9.90;99.90;;;;;;4992727;28;20976;-75
2022/04/24 13:00:47;;;;;;;2.30;2.10;;;10.00;99.90;;;;;;4992537;28;21030;-75
2022/04/24 13:03:15;;;;;;;2.03;1.83;;;9.90;99.90;;;;;;4992752;28;20536;-75
2022/04/24 13:05:44;;;;;;;1.90;1.80;;;9.90;99.90;;;;;;4992395;28;20979;-75
2022/04/24 13:08:11;;;;;;;2.33;2.13;;;9.90;99.90;;;;;;4991966;28;20440;-74
2022/04/24 13:10:38;;;;;;;2.90;1.97;;;9.90;99.90;;;;;;4992785;28;20472;-75
2022/04/24 13:13:05;;;;;;;2.60;2.40;;;9.90;99.90;;;;;;4992563;28;20936;-75
2022/04/24 13:15:34;;;;;;;2.47;2.27;;;10.00;99.90;;;;;;4992379;28;20462;-74
2022/04/24 13:18:07;;;;;;;2.87;2.67;;;10.00;99.90;;;;;;4991937;28;20444;-74
2022/04/24 13:20:36;;;;;;;2.60;2.40;;;10.00;99.90;;;;;;4992242;28;20472;-74
2022/04/24 13:23:05;;;;;;;2.37;1.90;;;10.10;99.90;;;;;;4992469;28;20954;-73
2022/04/24 13:25:32;;;;;;;1.80;1.70;;;10.10;99.90;;;;;;4992244;28;20487;-74
2022/04/24 13:27:59;;;;;;;1.83;1.73;;;10.20;99.90;;;;;;4991816;28;20463;-73
2022/04/24 13:30:26;;;;;;;2.70;2.50;;;10.20;99.90;;;;;;4992213;28;20904;-73
2022/04/24 13:32:54;;;;;;;5.13;2.67;;;10.20;99.90;;;;;;4992427;28;20534;-73
2022/04/24 13:35:21;;;;;;;6.90;2.70;;;10.20;99.90;;;;;;4992078;28;20456;-74
2022/04/24 13:40:32;;;;;;;2.20;2.00;;;10.30;99.90;;;;;;4992506;28;20443;-73
2022/04/24 13:42:59;;;;;;;2.50;2.20;;;10.20;99.90;;;;;;4992561;28;20455;-74
2022/04/24 13:45:26;;;;;;;3.60;3.27;;;10.20;99.90;;;;;;4991786;28;20546;-72
2022/04/24 13:47:55;;;;;;;2.60;2.40;;;10.20;99.90;;;;;;4982435;28;20529;-73
2022/04/24 13:50:22;;;;;;;2.10;2.00;;;10.20;99.90;;;;;;4991868;28;20507;-74
2022/04/24 13:52:50;;;;;;;1.83;1.73;;;10.20;99.90;;;;;;4992385;28;20465;-74
2022/04/24 13:55:17;;;;;;;2.20;2.00;;;10.20;99.90;;;;;;4991975;28;20542;-75
2022/04/24 13:57:45;;;;;;;2.20;2.00;;;10.20;99.90;;;;;;4991365;28;20835;-74
2022/04/24 14:00:13;;;;;;;2.70;2.50;;;10.20;99.90;;;;;;4990631;28;20981;-73
2022/04/24 14:02:41;;;;;;;2.50;2.23;;;10.10;99.90;;;;;;4992304;28;20517;-73
2022/04/24 14:05:11;;;;;;;3.17;2.23;;;10.10;99.90;;;;;;4992163;28;20501;-72
2022/04/24 14:07:38;;;;;;;2.43;2.23;;;10.10;99.90;;;;;;4991299;28;20909;-73
2022/04/24 14:10:06;;;;;;;2.60;2.37;;;10.00;99.90;;;;;;4992040;28;20527;-72
2022/04/24 14:12:33;;;;;;;3.53;2.20;;;10.00;99.90;;;;;;4991218;28;21200;-75
2022/04/24 14:15:00;;;;;;;2.80;2.60;;;9.90;99.90;;;;;;4991537;28;20518;-73
2022/04/24 14:17:27;;;;;;;4.00;2.57;;;9.90;99.90;;;;;;4991629;28;20483;-73
2022/04/24 14:19:54;;;;;;;3.30;2.80;;;9.80;99.90;;;;;;4991666;28;20955;-73
2022/04/24 14:22:22;;;;;;;3.00;2.70;;;9.90;99.90;;;;;;4992020;28;20480;-75
2022/04/24 14:24:49;;;;;;;2.80;2.60;;;9.90;99.90;;;;;;4985260;28;20539;-75
2022/04/24 14:27:18;;;;;;;3.70;2.90;;;9.90;99.90;;;;;;4971792;28;20468;-75
2022/04/24 14:29:45;;;;;;;13.83;7.70;;;9.90;99.90;;;;;;4972830;28;20492;-75
2022/04/24 14:32:14;;;;;;;19.00;13.30;;;9.90;99.90;;;;;;4972734;28;20484;-75
2022/04/24 14:34:41;;;;;;;24.90;16.53;;;9.90;99.90;;;;;;4972487;28;20483;-75
2022/04/24 14:37:08;;;;;;;22.17;15.60;;;9.90;99.90;;;;;;4971778;28;20459;-75
2022/04/24 14:39:36;;;;;;;21.83;15.33;;;9.90;99.90;;;;;;4975554;28;20515;-75
2022/04/24 14:42:04;;;;;;;26.40;17.03;;;9.80;99.90;;;;;;4971127;28;20531;-75
2022/04/24 14:44:32;;;;;;;28.00;17.70;;;9.80;99.90;;;;;;4969835;28;20464;-74
2022/04/24 14:57:59;;;;;;;44.80;25.87;;;9.70;99.90;;;;;;4968718;28;20511;-75
2022/04/24 15:00:26;;;;;;;38.57;23.50;;;9.60;99.90;;;;;;4968791;28;20552;-75
2022/04/24 15:02:53;;;;;;;38.10;23.63;;;9.60;99.90;;;;;;4969716;28;20457;-75
2022/04/24 15:05:20;;;;;;;37.57;25.60;;;9.70;99.90;;;;;;4969232;28;20468;-74
2022/04/24 15:07:47;;;;;;;40.50;24.03;;;9.70;99.90;;;;;;4968234;28;20539;-75
2022/04/24 15:10:16;;;;;;;39.33;24.90;;;9.70;99.90;;;;;;4969088;28;20534;-75
2022/04/24 15:12:43;;;;;;;46.07;26.30;;;9.70;99.90;;;;;;4969095;28;20527;-75
2022/04/24 15:15:11;;;;;;;44.70;27.70;;;9.70;99.90;;;;;;4968722;28;20464;-75
2022/04/24 15:17:38;;;;;;;43.67;27.87;;;9.60;99.90;;;;;;4968378;28;20983;-76
2022/04/24 15:20:07;;;;;;;44.90;25.77;;;9.60;99.90;;;;;;4968126;28;20465;-75
2022/04/24 15:22:34;;;;;;;45.00;27.90;;;9.60;99.90;;;;;;4968886;28;20567;-77
2022/04/24 15:25:01;;;;;;;45.37;28.63;;;9.60;99.90;;;;;;4968918;28;20456;-75
2022/04/24 15:27:30;;;;;;;42.30;26.80;;;9.60;99.90;;;;;;4968568;28;20467;-75
2022/04/24 15:29:57;;;;;;;51.17;31.80;;;9.60;99.90;;;;;;4969146;28;20495;-75
2022/04/24 15:32:25;;;;;;;50.97;31.50;;;9.60;99.90;;;;;;4968751;28;20555;-75
2022/04/24 15:34:52;;;;;;;48.40;29.27;;;9.60;99.90;;;;;;4969150;28;21653;-76
2022/04/24 15:37:19;;;;;;;46.87;29.87;;;9.70;99.90;;;;;;4968943;28;20453;-75
2022/04/24 15:39:47;;;;;;;49.23;31.03;;;9.60;99.90;;;;;;4969126;28;20488;-75
2022/04/24 15:42:14;;;;;;;40.70;27.60;;;9.60;99.90;;;;;;4968460;28;20482;-75
2022/04/24 15:47:27;;;;;;;48.60;30.43;;;9.70;99.90;;;;;;4968059;28;20616;-75
2022/04/24 15:49:57;;;;;;;46.10;28.80;;;9.70;99.90;;;;;;4967141;28;20496;-74
2022/04/24 15:52:24;;;;;;;51.37;28.43;;;9.70;99.90;;;;;;4968187;28;20485;-74
2022/04/24 15:54:51;;;;;;;45.23;27.97;;;9.60;99.90;;;;;;4967830;28;20560;-74
2022/04/24 15:57:18;;;;;;;45.07;27.80;;;9.60;99.90;;;;;;4967427;28;20547;-74
2022/04/24 15:59:46;;;;;;;40.50;27.70;;;9.60;99.90;;;;;;4968102;28;20544;-74
2022/04/24 16:02:16;;;;;;;52.40;28.90;;;9.60;99.90;;;;;;4967932;28;20498;-74
2022/04/24 16:04:44;;;;;;;45.87;29.50;;;9.60;99.90;;;;;;4968549;28;20464;-74
2022/04/24 16:07:11;;;;;;;47.23;27.73;;;9.60;99.90;;;;;;4967064;28;20543;-75
2022/04/24 16:09:38;;;;;;;47.73;29.37;;;9.60;99.90;;;;;;4967942;28;20562;-74
2022/04/24 16:12:06;;;;;;;44.73;28.27;;;9.60;99.90;;;;;;4968336;28;20502;-74
2022/04/24 16:14:33;;;;;;;42.70;27.80;;;9.60;99.90;;;;;;4968209;28;20963;-74
2022/04/24 16:17:01;;;;;;;42.60;27.30;;;9.50;99.90;;;;;;4967150;28;20448;-74
2022/04/24 16:19:28;;;;;;;42.53;27.20;;;9.50;99.90;;;;;;4967686;28;20457;-75
2022/04/24 16:21:56;;;;;;;44.03;28.97;;;9.60;99.90;;;;;;4966131;28;20515;-74
2022/04/24 16:24:25;;;;;;;46.40;28.80;;;9.50;99.90;;;;;;4967895;28;20555;-74
2022/04/24 16:26:53;;;;;;;40.80;27.67;;;9.60;99.90;;;;;;4967668;28;20957;-74
2022/04/24 16:32:08;;;;;;;45.67;29.60;;;9.70;99.90;;;;;;4967445;28;20595;-75
2022/04/24 16:34:36;;;;;;;41.37;27.37;;;9.60;99.90;;;;;;4967733;28;20540;-75
2022/04/24 16:37:04;;;;;;;44.97;27.83;;;9.70;99.90;;;;;;4966579;28;20461;-75
2022/04/24 16:39:31;;;;;;;42.40;28.33;;;9.70;99.90;;;;;;4967428;28;20886;-75
2022/04/24 16:41:59;;;;;;;40.37;27.87;;;9.70;99.90;;;;;;4967647;28;21142;-75
2022/04/24 16:44:26;;;;;;;42.20;27.40;;;9.80;99.90;;;;;;4967649;28;20460;-75
2022/04/24 16:46:53;;;;;;;39.13;26.50;;;9.80;99.90;;;;;;4965994;28;20460;-75
2022/04/24 16:49:22;;;;;;;40.63;27.40;;;9.90;99.90;;;;;;4967446;28;20453;-74
2022/04/24 17:00:02;;;;;;;37.20;25.73;;;10.00;99.90;;;;;;4967240;28;20424;-74
2022/04/24 17:02:30;;;;;;;37.63;25.70;;;10.00;99.90;;;;;;4966611;28;20481;-75
2022/04/24 17:04:58;;;;;;;34.73;25.93;;;10.00;99.90;;;;;;4966754;28;20467;-74
2022/04/24 17:07:25;;;;;;;37.97;25.87;;;10.00;99.90;;;;;;4966411;28;20539;-75
2022/04/24 17:09:52;;;;;;;37.97;26.13;;;10.00;99.90;;;;;;4967029;28;20496;-74
2022/04/24 17:12:19;;;;;;;36.70;26.17;;;10.00;99.90;;;;;;4966913;28;20535;-74
2022/04/24 17:14:46;;;;;;;35.93;25.60;;;10.00;99.90;;;;;;4966751;28;20449;-74
2022/04/24 17:17:13;;;;;;;39.03;26.37;;;10.00;99.90;;;;;;4966576;28;21008;-74
2022/04/24 17:19:40;;;;;;;37.30;25.90;;;10.10;99.90;;;;;;4967089;28;20535;-74
2022/04/24 17:22:08;;;;;;;35.67;26.20;;;10.10;99.90;;;;;;4966893;28;20495;-75
2022/04/24 17:24:36;;;;;;;40.47;27.70;;;10.00;99.90;;;;;;4967086;28;20475;-75
2022/04/24 17:27:04;;;;;;;41.13;27.43;;;10.00;99.90;;;;;;4966120;28;20456;-74